Hovedside
METAR-TAF:

METAR-TAF

Lufthavner :

Stockholm-Arlanda, Sverige

Arlanda lufthavn

breddegrad: 59-39N, lengdegrad: 017-57E, høyde over havet: 38 m

Gjeldene værobservasjon

Denne rapporten ble laget for 22 minutter siden, klokken 07:20 UTC
Vind 6 kt fra Øst-nordøst
Temperatur 2°C
Luftfuktighet 80%
Trykk 1028 hPa
Sikt 10 km eller mer
ingen skyer under 1500 m og ingen bygeskyer

METAR: ESSA 240720Z 07006KT CAVOK 02/M01 Q1028 NOSIG

Tid: 09:42 (07:42 UTC)

Varsel

Denne rapporten ble laget for 2 timer og 12 minutter siden, klokken 05:30 UTC
Varsel gyldig fra 24. klokken 06 UTC til 25. klokken 06 UTC
Vind 6 kt fra Øst
Sikt 10 km eller mer
ingen skyer under 1500 m og ingen bygeskyer
Blir
fra 24. klokken 22 UTC til 24. klokken 24 UTC
Vind 10 kt fra Sør-sørøst
Midlertidig
fra 25. klokken 03 UTC til 25. klokken 06 UTC
Brutte skyer i en høyde av 1200 ft
regn

TAF: ESSA 240530Z 2406/2506 08006KT CAVOK BECMG 2422/2424 15010KT TEMPO 2503/2506 RA BKN012

Værobservasjoner og værvarsel for over 4000 flyplasser (METAR- og TAF-rapporter).

Tilgjengelige stasjoner er representert av de røde og gule prikkene på kartet.

Hold musepekeren over prikken for å se navnet på stasjonen.

Klikk så for å se værobservasjoner og -varsler.

For å forandre kartet kan du klikke på den grønne knappen med svart kryss for å zoome inn, på den grønne knappen med strek for å zoome ut, eller på de grønne pilene for å se tilstøtende kart.


METAR-TAF: